Backblast- The Blender @ The Mutt 3/20- Amelia Q

Pax 23 Amelia Q, Captain Insane-O, Zartan, Kimble, Glen Ross, Fungi, Old Bay, Grinder, Pope, Buschhh, Wedding Singer, Digiorno, Corn Bread, Messi, Blueprint, Mad Cow, Backdraft, Sump Pump, Zima, Sherpa, Meter Maid, Snowman, Deuce. Weather conditions: KSDF 200856Z 12004KT 10SM BKN100 06/M05 A3025 It was my first time back at the Mutt in awhile and … Continue reading Backblast- The Blender @ The Mutt 3/20- Amelia Q

03/27/19 #F3MentalBattle

Let’s have a monster turnout next Wednesday at all of our glorious AOs to support mental health awareness.   This struggle is very real, and should NOT be taboo for a man to talk about. Bump your coffee meeting.  Reschedule your morning hot yoga.  Submit your TPS report early. Get there.

Backblast 3.19 The Loco @ St Als, Iceman Q -THE CIRCLE OF PAIN

Pax - Abacus, Ashley, Crockpot, Moms's Boy, Big Bird, Bulletin, Pew Pew, Fungi, Milton, Alexa, Gilligan, Wildflower, Red Wagon, Kimble, Jerry McGuire, Ladybird, Iceman(Q) Standard disclaimer that I played professional volleyball. This was an angry beatdown after I was unable to attend the Ruck Saturday. I want to thank this group of HIMs as I … Continue reading Backblast 3.19 The Loco @ St Als, Iceman Q -THE CIRCLE OF PAIN